createdAt,value
2018-04-16T00:02:02.452Z,11.60
2018-04-16T00:04:28.901Z,11.60
2018-04-16T00:06:55.376Z,11.70
2018-04-16T00:09:21.843Z,11.70
2018-04-16T00:11:48.378Z,11.70
2018-04-16T00:14:14.840Z,11.70
2018-04-16T00:16:41.379Z,11.60
2018-04-16T00:19:07.808Z,11.60
2018-04-16T00:21:35.119Z,11.50
2018-04-16T00:24:01.595Z,11.50
2018-04-16T00:26:29.020Z,11.60
2018-04-16T00:28:55.444Z,11.60
2018-04-16T00:31:21.902Z,11.60
2018-04-16T00:33:54.479Z,11.50
2018-04-16T00:36:27.116Z,11.40
2018-04-16T00:38:59.636Z,11.40
2018-04-16T00:41:32.084Z,11.40
2018-04-16T00:44:04.594Z,11.30
2018-04-16T00:46:37.144Z,11.40
2018-04-16T00:49:09.648Z,11.40
2018-04-16T00:51:42.084Z,11.30
2018-04-16T00:54:24.936Z,11.30
2018-04-16T01:00:04.200Z,11.20
2018-04-16T01:02:36.865Z,11.10
2018-04-16T01:05:09.527Z,11.10
2018-04-16T01:07:42.176Z,11.10
2018-04-16T01:10:15.475Z,11.10
2018-04-16T01:12:48.724Z,11.00
2018-04-16T01:15:21.166Z,11.00
2018-04-16T01:17:53.577Z,10.90
2018-04-16T01:20:26.202Z,10.90
2018-04-16T01:22:58.784Z,10.90
2018-04-16T01:25:31.447Z,10.90
2018-04-16T01:28:04.023Z,10.90
2018-04-16T01:30:37.344Z,10.90
2018-04-16T01:33:09.892Z,10.90
2018-04-16T01:35:42.457Z,10.90
2018-04-16T01:38:15.036Z,10.90
2018-04-16T01:40:47.608Z,10.90
2018-04-16T01:43:20.061Z,11.00
2018-04-16T01:45:52.642Z,10.90
2018-04-16T01:48:26.263Z,11.00
2018-04-16T01:50:58.595Z,11.00
2018-04-16T01:53:31.205Z,11.00
2018-04-16T01:56:03.834Z,11.00
2018-04-16T01:58:37.156Z,11.00
2018-04-16T02:01:09.806Z,11.00
2018-04-16T02:03:43.164Z,11.00
2018-04-16T02:06:15.773Z,10.90
2018-04-16T02:08:48.433Z,10.90
2018-04-16T02:11:21.787Z,11.00
2018-04-16T02:13:54.424Z,10.90
2018-04-16T02:16:27.143Z,10.90
2018-04-16T02:18:59.752Z,10.90
2018-04-16T02:21:33.076Z,10.90
2018-04-16T02:24:05.803Z,10.90
2018-04-16T02:26:38.396Z,10.90
2018-04-16T02:29:10.972Z,10.80
2018-04-16T02:31:44.994Z,10.80
2018-04-16T02:34:17.564Z,10.80
2018-04-16T02:36:50.210Z,10.80
2018-04-16T02:39:22.848Z,10.80
2018-04-16T02:41:55.513Z,10.80
2018-04-16T02:44:28.090Z,10.70
2018-04-16T02:47:00.617Z,10.70
2018-04-16T02:49:33.320Z,10.70
2018-04-16T02:52:05.962Z,10.60
2018-04-16T02:54:39.352Z,10.60
2018-04-16T02:57:12.788Z,10.60
2018-04-16T02:59:45.434Z,10.60
2018-04-16T03:02:18.821Z,10.60
2018-04-16T03:04:51.494Z,10.50
2018-04-16T03:07:24.014Z,10.50
2018-04-16T03:09:56.585Z,10.50
2018-04-16T03:12:29.245Z,10.50
2018-04-16T03:15:01.849Z,10.50
2018-04-16T03:17:34.655Z,10.50
2018-04-16T03:23:07.157Z,10.50
2018-04-16T03:25:39.761Z,10.50
2018-04-16T03:28:13.139Z,10.50
2018-04-16T03:30:45.806Z,10.50
2018-04-16T03:33:18.389Z,10.50
2018-04-16T03:35:51.039Z,10.50
2018-04-16T03:41:29.357Z,10.50
2018-04-16T03:44:02.681Z,10.50
2018-04-16T03:46:35.385Z,10.50
2018-04-16T03:49:07.898Z,10.50
2018-04-16T03:51:45.302Z,10.60
2018-04-16T03:54:12.029Z,10.60
2018-04-16T03:56:39.364Z,10.60
2018-04-16T03:59:05.898Z,10.60
2018-04-16T04:01:32.440Z,10.60
2018-04-16T04:03:58.983Z,10.70
2018-04-16T04:06:25.526Z,10.70
2018-04-16T04:08:52.049Z,10.70
2018-04-16T04:11:20.413Z,10.70
2018-04-16T04:13:46.953Z,10.70
2018-04-16T04:16:13.596Z,10.80
2018-04-16T04:18:40.132Z,10.70
2018-04-16T04:21:06.696Z,10.70
2018-04-16T04:23:46.254Z,10.70
2018-04-16T04:26:27.720Z,10.80
2018-04-16T04:29:06.752Z,10.70
2018-04-16T04:31:34.156Z,10.80
2018-04-16T04:34:00.680Z,10.80
2018-04-16T04:36:27.963Z,10.80
2018-04-16T04:38:54.499Z,10.80
2018-04-16T04:41:21.176Z,10.90
2018-04-16T04:43:47.757Z,10.90
2018-04-16T04:46:14.322Z,10.90
2018-04-16T04:48:40.836Z,10.90
2018-04-16T04:51:07.369Z,11.00
2018-04-16T04:53:33.906Z,11.00
2018-04-16T04:56:00.460Z,11.00
2018-04-16T04:58:26.979Z,11.00
2018-04-16T05:00:53.619Z,11.00
2018-04-16T05:03:20.058Z,11.00
2018-04-16T05:05:46.640Z,11.00
2018-04-16T05:08:13.180Z,11.10
2018-04-16T05:10:40.449Z,11.00
2018-04-16T05:13:07.744Z,11.00
2018-04-16T05:15:34.256Z,11.00
2018-04-16T05:18:00.941Z,11.00
2018-04-16T05:20:28.015Z,11.00
2018-04-16T05:22:54.654Z,11.00
2018-04-16T05:25:22.537Z,11.00
2018-04-16T05:27:49.946Z,11.00
2018-04-16T05:30:16.533Z,11.00
2018-04-16T05:32:43.841Z,11.00
2018-04-16T05:35:10.365Z,10.90
2018-04-16T05:37:36.937Z,11.00
2018-04-16T05:40:03.811Z,11.00
2018-04-16T05:42:31.102Z,11.00
2018-04-16T05:44:57.644Z,11.00
2018-04-16T05:47:24.180Z,11.00
2018-04-16T05:49:50.701Z,11.00
2018-04-16T05:52:17.354Z,11.00
2018-04-16T05:54:43.884Z,11.00
2018-04-16T05:57:10.489Z,11.00
2018-04-16T05:59:37.772Z,11.10
2018-04-16T06:02:04.317Z,11.10
2018-04-16T06:04:30.900Z,11.10
2018-04-16T06:06:57.449Z,11.10
2018-04-16T06:09:24.717Z,11.20
2018-04-16T06:11:51.313Z,11.20
2018-04-16T06:14:19.295Z,11.20
2018-04-16T06:16:46.752Z,11.20
2018-04-16T06:19:14.723Z,11.20
2018-04-16T06:21:42.795Z,11.30
2018-04-16T06:24:10.657Z,11.30
2018-04-16T06:26:38.589Z,11.30
2018-04-16T06:29:05.887Z,11.30
2018-04-16T06:31:33.250Z,11.30
2018-04-16T06:34:00.501Z,11.30
2018-04-16T06:36:28.570Z,11.40
2018-04-16T06:38:56.567Z,11.40
2018-04-16T06:41:23.750Z,11.40
2018-04-16T06:43:50.946Z,11.50
2018-04-16T06:46:18.504Z,11.50
2018-04-16T06:48:45.758Z,11.50
2018-04-16T06:51:13.117Z,11.50
2018-04-16T06:53:40.367Z,11.50
2018-04-16T06:56:08.346Z,11.60
2018-04-16T06:58:35.593Z,11.60
2018-04-16T07:01:02.341Z,11.60
2018-04-16T07:03:28.925Z,11.60
2018-04-16T07:05:55.567Z,11.60
2018-04-16T07:08:22.103Z,11.60
2018-04-16T07:10:48.682Z,11.70
2018-04-16T07:13:15.970Z,11.70
2018-04-16T07:15:42.612Z,11.70
2018-04-16T07:18:09.937Z,11.80
2018-04-16T07:20:37.247Z,11.80
2018-04-16T07:23:03.853Z,11.80
2018-04-16T07:25:30.457Z,11.90
2018-04-16T07:27:58.464Z,11.90
2018-04-16T07:30:25.766Z,12.00
2018-04-16T07:32:53.076Z,12.00
2018-04-16T07:35:19.855Z,12.00
2018-04-16T07:37:46.547Z,12.00
2018-04-16T07:40:13.293Z,12.00
2018-04-16T07:42:39.824Z,12.00
2018-04-16T07:45:07.150Z,12.20
2018-04-16T07:47:33.688Z,12.20
2018-04-16T07:50:00.988Z,12.40
2018-04-16T07:52:27.497Z,12.30
2018-04-16T07:54:54.841Z,12.60
2018-04-16T07:57:22.141Z,12.70
2018-04-16T07:59:48.741Z,12.70
2018-04-16T08:02:16.041Z,13.00
2018-04-16T08:04:42.697Z,13.00
2018-04-16T08:07:09.268Z,13.10
2018-04-16T08:09:36.618Z,13.40
2018-04-16T08:12:03.311Z,13.40
2018-04-16T08:14:29.968Z,13.40
2018-04-16T08:16:56.643Z,13.60
2018-04-16T08:19:23.951Z,13.70
2018-04-16T08:21:50.477Z,13.70
2018-04-16T08:24:17.129Z,13.80
2018-04-16T08:26:44.446Z,13.90
2018-04-16T08:29:11.738Z,14.00
2018-04-16T08:31:38.373Z,14.00
2018-04-16T08:34:04.984Z,14.00
2018-04-16T08:36:31.594Z,14.20
2018-04-16T08:38:58.984Z,14.40
2018-04-16T08:41:26.282Z,14.50
2018-04-16T08:43:52.838Z,14.40
2018-04-16T08:46:19.481Z,14.60
2018-04-16T08:48:46.022Z,14.70
2018-04-16T08:51:12.573Z,14.90
2018-04-16T08:53:39.880Z,15.00
2018-04-16T08:56:06.400Z,15.00
2018-04-16T08:58:32.987Z,15.00
2018-04-16T09:01:00.320Z,15.00
2018-04-16T09:03:27.660Z,15.10
2018-04-16T09:05:54.223Z,15.00
2018-04-16T09:08:20.800Z,15.10
2018-04-16T09:10:47.402Z,15.10
2018-04-16T09:13:13.987Z,15.10
2018-04-16T09:15:40.553Z,15.20
2018-04-16T09:18:07.173Z,15.30
2018-04-16T09:20:33.725Z,15.50
2018-04-16T09:23:00.296Z,15.60
2018-04-16T09:25:26.833Z,15.80
2018-04-16T09:27:54.142Z,16.00
2018-04-16T09:30:20.774Z,15.90
2018-04-16T09:32:47.353Z,16.00
2018-04-16T09:35:13.912Z,16.10
2018-04-16T09:37:40.458Z,16.20
2018-04-16T09:40:06.999Z,16.30
2018-04-16T09:42:33.735Z,16.40
2018-04-16T09:45:00.311Z,16.50
2018-04-16T09:47:26.896Z,16.60
2018-04-16T09:49:54.956Z,16.70
2018-04-16T09:52:21.546Z,16.80
2018-04-16T09:54:48.072Z,16.90
2018-04-16T09:57:14.779Z,17.10
2018-04-16T09:59:42.104Z,17.80
2018-04-16T10:02:14.600Z,17.80
2018-04-16T10:04:41.947Z,18.90
2018-04-16T10:07:08.486Z,18.90
2018-04-16T10:09:35.842Z,19.70
2018-04-16T10:12:02.504Z,19.70
2018-04-16T10:14:29.189Z,20.00
2018-04-16T10:16:55.814Z,20.40
2018-04-16T10:19:22.403Z,20.60
2018-04-16T10:21:48.992Z,20.70
2018-04-16T10:24:15.645Z,20.60
2018-04-16T10:26:42.256Z,20.40
2018-04-16T10:29:08.875Z,20.30
2018-04-16T10:31:36.287Z,20.30
2018-04-16T10:34:02.930Z,20.20
2018-04-16T10:36:29.637Z,20.30
2018-04-16T10:38:56.218Z,20.60
2018-04-16T10:41:22.817Z,20.80
2018-04-16T10:43:49.408Z,21.10
2018-04-16T10:46:15.986Z,21.50
2018-04-16T10:48:42.653Z,22.00
2018-04-16T10:51:09.172Z,22.80
2018-04-16T10:53:35.757Z,23.40
2018-04-16T10:56:02.319Z,23.90
2018-04-16T10:58:29.619Z,24.50
2018-04-16T11:00:56.181Z,24.40
2018-04-16T11:03:22.758Z,25.00
2018-04-16T11:05:50.086Z,25.30
2018-04-16T11:08:16.684Z,25.30
2018-04-16T11:10:43.241Z,25.50
2018-04-16T11:13:09.881Z,25.20
2018-04-16T11:15:37.201Z,24.30
2018-04-16T11:18:03.866Z,24.20
2018-04-16T11:20:30.427Z,23.90
2018-04-16T11:22:57.044Z,23.50
2018-04-16T11:25:23.612Z,23.20
2018-04-16T11:27:50.219Z,23.00
2018-04-16T11:30:16.814Z,22.50
2018-04-16T11:32:43.476Z,22.00
2018-04-16T11:35:10.035Z,21.30
2018-04-16T11:37:36.655Z,20.80
2018-04-16T11:40:03.319Z,20.40
2018-04-16T11:42:29.981Z,20.00
2018-04-16T11:44:56.625Z,19.60
2018-04-16T11:47:23.971Z,18.90
2018-04-16T11:49:50.599Z,18.90
2018-04-16T11:52:17.920Z,18.50
2018-04-16T11:54:44.485Z,18.50
2018-04-16T11:57:11.076Z,18.40
2018-04-16T11:59:37.640Z,18.40
2018-04-16T12:02:04.263Z,18.50
2018-04-16T12:04:30.869Z,18.60
2018-04-16T12:06:59.002Z,18.80
2018-04-16T12:09:25.573Z,18.80
2018-04-16T12:11:52.211Z,18.90
2018-04-16T12:14:18.851Z,19.10
2018-04-16T12:16:46.207Z,19.70
2018-04-16T12:19:12.802Z,19.70
2018-04-16T12:21:39.353Z,19.80
2018-04-16T12:24:05.883Z,20.10
2018-04-16T12:26:32.453Z,20.50
2018-04-16T12:28:59.023Z,20.90
2018-04-16T12:31:25.632Z,21.10
2018-04-16T12:33:52.201Z,21.20
2018-04-16T12:36:18.798Z,20.90
2018-04-16T12:38:45.347Z,20.60
2018-04-16T12:41:11.914Z,20.20
2018-04-16T12:43:38.585Z,20.00
2018-04-16T12:46:05.220Z,19.90
2018-04-16T12:48:31.784Z,19.80
2018-04-16T12:50:59.154Z,19.40
2018-04-16T12:53:26.468Z,19.20
2018-04-16T12:55:53.368Z,19.20
2018-04-16T12:58:20.629Z,18.80
2018-04-16T13:00:47.960Z,18.70
2018-04-16T13:03:14.478Z,18.60
2018-04-16T13:05:41.037Z,18.60
2018-04-16T13:08:07.701Z,18.50
2018-04-16T13:10:34.309Z,18.40
2018-04-16T13:13:00.840Z,18.40
2018-04-16T13:15:27.491Z,18.30
2018-04-16T13:17:54.819Z,18.30
2018-04-16T13:20:21.412Z,18.30
2018-04-16T13:22:48.122Z,18.20
2018-04-16T13:25:14.821Z,18.20
2018-04-16T13:27:41.386Z,18.20
2018-04-16T13:30:08.009Z,18.10
2018-04-16T13:32:34.533Z,18.20
2018-04-16T13:35:01.215Z,18.30
2018-04-16T13:37:27.791Z,18.40
2018-04-16T13:39:54.425Z,18.50
2018-04-16T13:42:20.965Z,19.20
2018-04-16T13:44:47.534Z,19.70
2018-04-16T13:47:14.098Z,20.00
2018-04-16T13:49:40.662Z,20.30
2018-04-16T13:52:07.215Z,20.40
2018-04-16T13:54:33.817Z,20.40
2018-04-16T13:57:01.155Z,20.00
2018-04-16T13:59:27.747Z,20.00
2018-04-16T14:01:54.264Z,19.90
2018-04-16T14:04:21.604Z,19.60
2018-04-16T14:06:48.189Z,19.60
2018-04-16T14:09:14.777Z,19.50
2018-04-16T14:11:41.517Z,19.50
2018-04-16T14:14:08.877Z,19.50
2018-04-16T14:16:35.535Z,19.50
2018-04-16T14:19:02.852Z,19.40
2018-04-16T14:21:29.402Z,19.40
2018-04-16T14:23:56.000Z,19.40
2018-04-16T14:26:24.576Z,19.40
2018-04-16T14:28:51.273Z,19.50
2018-04-16T14:31:18.585Z,19.80
2018-04-16T14:33:45.140Z,19.70
2018-04-16T14:36:11.661Z,20.00
2018-04-16T14:38:38.267Z,20.60
2018-04-16T14:41:04.852Z,21.10
2018-04-16T14:43:31.510Z,21.30
2018-04-16T14:45:58.211Z,21.40
2018-04-16T14:48:24.889Z,21.40
2018-04-16T14:50:51.529Z,21.60
2018-04-16T14:53:18.260Z,21.70
2018-04-16T14:55:48.898Z,21.70
2018-04-16T14:58:15.605Z,21.70
2018-04-16T15:00:58.460Z,21.90
2018-04-16T15:03:27.121Z,22.10
2018-04-16T15:05:53.708Z,21.80
2018-04-16T15:08:20.318Z,21.40
2018-04-16T15:10:47.653Z,20.90
2018-04-16T15:16:27.350Z,20.70
2018-04-16T15:22:04.188Z,20.50
2018-04-16T15:24:30.813Z,20.40
2018-04-16T15:26:57.490Z,20.40
2018-04-16T15:29:24.107Z,20.40
2018-04-16T15:31:50.720Z,20.40
2018-04-16T15:34:18.008Z,20.50
2018-04-16T15:36:44.616Z,20.50
2018-04-16T15:39:11.327Z,20.50
2018-04-16T15:41:38.030Z,20.60
2018-04-16T15:44:04.665Z,20.50
2018-04-16T15:46:31.286Z,20.60
2018-04-16T15:48:57.883Z,20.60
2018-04-16T15:51:25.245Z,20.40
2018-04-16T15:53:51.897Z,20.40
2018-04-16T15:56:19.245Z,20.20
2018-04-16T15:58:45.991Z,20.20
2018-04-16T16:01:13.525Z,19.80
2018-04-16T16:03:40.901Z,19.80
2018-04-16T16:06:07.500Z,19.80
2018-04-16T16:08:34.084Z,19.70
2018-04-16T16:11:05.322Z,19.60
2018-04-16T16:13:31.989Z,19.60
2018-04-16T16:15:58.549Z,19.50
2018-04-16T16:18:25.183Z,19.40
2018-04-16T16:20:51.852Z,19.40
2018-04-16T16:23:18.455Z,19.50
2018-04-16T16:25:45.075Z,19.50
2018-04-16T16:28:11.661Z,19.50
2018-04-16T16:30:38.205Z,19.50
2018-04-16T16:33:04.866Z,19.60
2018-04-16T16:35:31.489Z,19.40
2018-04-16T16:37:58.082Z,19.30
2018-04-16T16:40:24.744Z,19.10
2018-04-16T16:42:51.360Z,18.80
2018-04-16T16:45:18.024Z,18.60
2018-04-16T16:47:44.870Z,18.50
2018-04-16T16:50:11.453Z,18.40
2018-04-16T16:52:38.819Z,18.20
2018-04-16T16:55:05.470Z,18.10
2018-04-16T16:57:32.917Z,17.80
2018-04-16T16:59:59.535Z,17.80
2018-04-16T17:02:27.995Z,17.60
2018-04-16T17:04:54.655Z,17.60
2018-04-16T17:07:22.041Z,17.50
2018-04-16T17:09:48.677Z,17.50
2018-04-16T17:12:15.321Z,17.40
2018-04-16T17:14:41.925Z,17.30
2018-04-16T17:17:08.668Z,17.30
2018-04-16T17:19:36.008Z,17.10
2018-04-16T17:22:02.593Z,17.10
2018-04-16T17:24:29.367Z,16.90
2018-04-16T17:26:55.947Z,16.80
2018-04-16T17:29:22.684Z,16.70
2018-04-16T17:31:49.349Z,16.70
2018-04-16T17:34:16.034Z,16.60
2018-04-16T17:36:42.597Z,16.60
2018-04-16T17:39:09.239Z,16.50
2018-04-16T17:41:35.843Z,16.50
2018-04-16T17:44:02.732Z,16.50
2018-04-16T17:46:30.078Z,16.30
2018-04-16T17:48:56.681Z,16.30
2018-04-16T17:51:24.487Z,16.20
2018-04-16T17:53:51.063Z,16.10
2018-04-16T17:56:17.622Z,16.00
2018-04-16T17:58:44.180Z,15.90
2018-04-16T18:01:11.551Z,15.70
2018-04-16T18:03:38.113Z,15.60
2018-04-16T18:06:04.905Z,15.50
2018-04-16T18:08:31.410Z,15.40
2018-04-16T18:10:58.060Z,15.30
2018-04-16T18:13:24.664Z,15.10
2018-04-16T18:15:51.977Z,14.80
2018-04-16T18:18:18.558Z,14.80
2018-04-16T18:20:45.125Z,14.70
2018-04-16T18:23:11.837Z,14.60
2018-04-16T18:25:39.154Z,14.30
2018-04-16T18:28:05.697Z,14.30
2018-04-16T18:30:32.310Z,14.10
2018-04-16T18:32:58.868Z,14.00
2018-04-16T18:35:25.577Z,13.80
2018-04-16T18:37:52.313Z,13.70
2018-04-16T18:40:18.922Z,13.60
2018-04-16T18:42:45.601Z,13.40
2018-04-16T18:45:12.201Z,13.30
2018-04-16T18:47:38.889Z,13.20
2018-04-16T18:50:05.509Z,13.10
2018-04-16T18:52:32.092Z,13.00
2018-04-16T18:54:58.652Z,12.80
2018-04-16T18:57:25.911Z,12.60
2018-04-16T18:59:52.481Z,12.50
2018-04-16T19:02:19.025Z,12.40
2018-04-16T19:04:45.589Z,12.30
2018-04-16T19:07:12.121Z,12.20
2018-04-16T19:09:38.660Z,12.10
2018-04-16T19:12:05.220Z,12.10
2018-04-16T19:14:32.553Z,11.90
2018-04-16T19:16:59.137Z,11.80
2018-04-16T19:19:25.729Z,11.80
2018-04-16T19:21:53.313Z,11.80
2018-04-16T19:24:20.599Z,11.60
2018-04-16T19:26:53.565Z,11.60
2018-04-16T19:29:20.900Z,11.40
2018-04-16T19:31:47.668Z,11.40
2018-04-16T19:34:21.001Z,11.30
2018-04-16T19:36:47.689Z,11.20
2018-04-16T19:39:15.005Z,11.20
2018-04-16T19:41:47.617Z,11.10
2018-04-16T19:44:14.913Z,11.00
2018-04-16T19:46:41.452Z,11.00
2018-04-16T19:49:14.021Z,10.90
2018-04-16T19:51:40.620Z,10.80
2018-04-16T19:54:07.902Z,10.60
2018-04-16T19:56:40.670Z,10.60
2018-04-16T19:59:07.294Z,10.50
2018-04-16T20:01:33.863Z,10.40
2018-04-16T20:04:00.449Z,10.30
2018-04-16T20:06:27.021Z,10.20
2018-04-16T20:08:53.543Z,10.20
2018-04-16T20:11:20.137Z,10.10
2018-04-16T20:13:46.681Z,10.00
2018-04-16T20:16:13.299Z,10.00
2018-04-16T20:18:39.857Z,9.90
2018-04-16T20:21:06.414Z,9.80
2018-04-16T20:23:32.963Z,9.70
2018-04-16T20:26:00.281Z,9.60
2018-04-16T20:28:26.874Z,9.60
2018-04-16T20:30:53.412Z,9.60
2018-04-16T20:33:20.669Z,9.50
2018-04-16T20:35:47.994Z,9.40
2018-04-16T20:38:14.524Z,9.40
2018-04-16T20:40:41.121Z,9.40
2018-04-16T20:43:07.652Z,9.30
2018-04-16T20:45:34.240Z,9.30
2018-04-16T20:48:00.749Z,9.20
2018-04-16T20:50:27.390Z,9.10
2018-04-16T20:52:53.961Z,9.10
2018-04-16T20:55:20.524Z,9.10
2018-04-16T20:57:47.785Z,8.90
2018-04-16T21:00:15.090Z,8.90
2018-04-16T21:02:41.625Z,8.80
2018-04-16T21:05:08.202Z,8.80
2018-04-16T21:07:35.753Z,8.60
2018-04-16T21:10:02.699Z,8.60
2018-04-16T21:12:29.544Z,8.60
2018-04-16T21:14:56.391Z,8.50
2018-04-16T21:17:23.235Z,8.40
2018-04-16T21:19:50.893Z,8.30
2018-04-16T21:22:17.745Z,8.30
2018-04-16T21:24:44.684Z,8.20
2018-04-16T21:27:11.528Z,8.20
2018-04-16T21:29:38.275Z,8.10
2018-04-16T21:32:05.115Z,8.10
2018-04-16T21:34:31.956Z,8.10
2018-04-16T21:36:58.801Z,8.10
2018-04-16T21:39:25.644Z,8.00
2018-04-16T21:41:52.487Z,8.00
2018-04-16T21:44:19.346Z,8.00
2018-04-16T21:46:46.282Z,8.00
2018-04-16T21:49:13.123Z,7.90
2018-04-16T21:51:39.980Z,7.90
2018-04-16T21:54:06.912Z,7.80
2018-04-16T21:56:33.755Z,7.80
2018-04-16T21:59:00.601Z,7.70
2018-04-16T22:01:27.443Z,7.70
2018-04-16T22:03:54.186Z,7.70
2018-04-16T22:06:21.027Z,7.70
2018-04-16T22:08:47.976Z,7.80
2018-04-16T22:11:14.822Z,8.10
2018-04-16T22:13:41.660Z,8.20
2018-04-16T22:16:08.505Z,8.40
2018-04-16T22:18:35.349Z,8.50
2018-04-16T22:21:02.199Z,8.50
2018-04-16T22:23:29.141Z,8.60
2018-04-16T22:25:55.802Z,8.80
2018-04-16T22:28:22.622Z,8.90
2018-04-16T22:30:49.465Z,9.10
2018-04-16T22:33:16.312Z,9.10
2018-04-16T22:35:43.157Z,9.10
2018-04-16T22:38:09.999Z,9.00
2018-04-16T22:40:36.840Z,9.00
2018-04-16T22:43:03.683Z,8.90
2018-04-16T22:45:30.529Z,9.00
2018-04-16T22:47:57.372Z,9.10
2018-04-16T22:50:24.214Z,9.20
2018-04-16T22:52:51.063Z,9.30
2018-04-16T22:55:17.805Z,9.40
2018-04-16T22:57:44.441Z,9.50
2018-04-16T23:00:11.022Z,9.70
2018-04-16T23:02:37.569Z,9.70
2018-04-16T23:05:04.110Z,9.80
2018-04-16T23:07:34.570Z,9.90
2018-04-16T23:10:01.122Z,9.90
2018-04-16T23:12:27.696Z,10.00
2018-04-16T23:14:54.216Z,10.10
2018-04-16T23:17:21.549Z,10.10
2018-04-16T23:19:48.236Z,10.10
2018-04-16T23:22:14.787Z,10.10
2018-04-16T23:24:41.305Z,10.20
2018-04-16T23:27:07.869Z,10.20
2018-04-16T23:29:34.386Z,10.20
2018-04-16T23:32:00.905Z,10.20
2018-04-16T23:34:27.422Z,10.20
2018-04-16T23:36:54.741Z,10.20
2018-04-16T23:39:21.278Z,10.20
2018-04-16T23:41:47.959Z,10.10
2018-04-16T23:44:16.567Z,10.10
2018-04-16T23:46:43.092Z,9.90
2018-04-16T23:49:09.616Z,9.90
2018-04-16T23:51:36.149Z,10.00
2018-04-16T23:54:03.410Z,9.90
2018-04-16T23:56:29.981Z,9.90
2018-04-16T23:58:56.497Z,9.80
